sensor_id;sensor_type;location;lat;lon;timestamp;P1;durP1;ratioP1;P2;durP2;ratioP2
11139;SDS011;5624;49.388;11.350;2023-08-07T00:01:44;1.60;;;1.20;;
11139;SDS011;5624;49.388;11.350;2023-08-07T00:04:09;1.57;;;0.90;;
11139;SDS011;5624;49.388;11.350;2023-08-07T00:06:35;1.73;;;1.00;;
11139;SDS011;5624;49.388;11.350;2023-08-07T00:09:00;1.90;;;0.97;;
11139;SDS011;5624;49.388;11.350;2023-08-07T00:11:26;1.57;;;1.00;;
11139;SDS011;5624;49.388;11.350;2023-08-07T00:13:53;0.80;;;0.80;;
11139;SDS011;5624;49.388;11.350;2023-08-07T00:16:19;1.93;;;0.80;;
11139;SDS011;5624;49.388;11.350;2023-08-07T00:18:44;1.47;;;0.87;;
11139;SDS011;5624;49.388;11.350;2023-08-07T00:21:10;1.50;;;0.63;;
11139;SDS011;5624;49.388;11.350;2023-08-07T00:23:36;0.63;;;0.60;;
11139;SDS011;5624;49.388;11.350;2023-08-07T00:26:01;1.33;;;0.80;;
11139;SDS011;5624;49.388;11.350;2023-08-07T00:28:27;1.00;;;0.90;;
11139;SDS011;5624;49.388;11.350;2023-08-07T00:30:54;0.87;;;0.70;;
11139;SDS011;5624;49.388;11.350;2023-08-07T00:33:20;2.10;;;0.80;;
11139;SDS011;5624;49.388;11.350;2023-08-07T00:35:46;2.00;;;0.90;;
11139;SDS011;5624;49.388;11.350;2023-08-07T00:38:11;1.40;;;0.80;;
11139;SDS011;5624;49.388;11.350;2023-08-07T00:40:40;0.53;;;0.53;;
11139;SDS011;5624;49.388;11.350;2023-08-07T00:43:07;0.50;;;0.50;;
11139;SDS011;5624;49.388;11.350;2023-08-07T00:45:41;0.70;;;0.50;;
11139;SDS011;5624;49.388;11.350;2023-08-07T00:48:07;0.63;;;0.50;;
11139;SDS011;5624;49.388;11.350;2023-08-07T00:50:33;0.50;;;0.50;;
11139;SDS011;5624;49.388;11.350;2023-08-07T00:52:59;0.50;;;0.50;;
11139;SDS011;5624;49.388;11.350;2023-08-07T00:55:25;0.60;;;0.60;;
11139;SDS011;5624;49.388;11.350;2023-08-07T00:57:51;0.57;;;0.50;;
11139;SDS011;5624;49.388;11.350;2023-08-07T01:00:17;0.40;;;0.40;;
11139;SDS011;5624;49.388;11.350;2023-08-07T01:02:44;0.67;;;0.53;;
11139;SDS011;5624;49.388;11.350;2023-08-07T01:05:10;0.50;;;0.50;;
11139;SDS011;5624;49.388;11.350;2023-08-07T01:07:35;1.70;;;0.60;;
11139;SDS011;5624;49.388;11.350;2023-08-07T01:10:01;1.60;;;0.70;;
11139;SDS011;5624;49.388;11.350;2023-08-07T01:12:33;0.87;;;0.50;;
11139;SDS011;5624;49.388;11.350;2023-08-07T01:15:14;0.50;;;0.50;;
11139;SDS011;5624;49.388;11.350;2023-08-07T01:17:43;0.57;;;0.50;;
11139;SDS011;5624;49.388;11.350;2023-08-07T01:20:11;0.83;;;0.60;;
11139;SDS011;5624;49.388;11.350;2023-08-07T01:22:36;1.07;;;0.57;;
11139;SDS011;5624;49.388;11.350;2023-08-07T01:25:02;1.63;;;0.67;;
11139;SDS011;5624;49.388;11.350;2023-08-07T01:27:41;0.83;;;0.70;;
11139;SDS011;5624;49.388;11.350;2023-08-07T01:30:20;1.37;;;0.60;;
11139;SDS011;5624;49.388;11.350;2023-08-07T01:33:57;1.10;;;0.80;;
11139;SDS011;5624;49.388;11.350;2023-08-07T01:36:05;1.63;;;0.80;;
11139;SDS011;5624;49.388;11.350;2023-08-07T01:38:33;0.90;;;0.60;;
11139;SDS011;5624;49.388;11.350;2023-08-07T01:41:01;0.87;;;0.60;;
11139;SDS011;5624;49.388;11.350;2023-08-07T01:43:27;0.67;;;0.63;;
11139;SDS011;5624;49.388;11.350;2023-08-07T01:45:53;0.87;;;0.70;;
11139;SDS011;5624;49.388;11.350;2023-08-07T01:48:19;0.83;;;0.67;;
11139;SDS011;5624;49.388;11.350;2023-08-07T01:50:44;0.60;;;0.60;;
11139;SDS011;5624;49.388;11.350;2023-08-07T01:53:10;1.10;;;0.80;;
11139;SDS011;5624;49.388;11.350;2023-08-07T01:55:36;1.73;;;0.90;;
11139;SDS011;5624;49.388;11.350;2023-08-07T01:58:01;1.57;;;0.80;;
11139;SDS011;5624;49.388;11.350;2023-08-07T02:00:27;1.23;;;0.80;;
11139;SDS011;5624;49.388;11.350;2023-08-07T02:02:53;1.27;;;0.80;;
11139;SDS011;5624;49.388;11.350;2023-08-07T02:05:18;0.60;;;0.60;;
11139;SDS011;5624;49.388;11.350;2023-08-07T02:07:44;0.70;;;0.70;;
11139;SDS011;5624;49.388;11.350;2023-08-07T02:10:09;1.80;;;0.77;;
11139;SDS011;5624;49.388;11.350;2023-08-07T02:12:35;0.53;;;0.53;;
11139;SDS011;5624;49.388;11.350;2023-08-07T02:15:00;1.77;;;0.83;;
11139;SDS011;5624;49.388;11.350;2023-08-07T02:17:27;0.73;;;0.73;;
11139;SDS011;5624;49.388;11.350;2023-08-07T02:19:53;1.67;;;0.83;;
11139;SDS011;5624;49.388;11.350;2023-08-07T02:22:19;1.17;;;1.00;;
11139;SDS011;5624;49.388;11.350;2023-08-07T02:24:44;2.30;;;0.97;;
11139;SDS011;5624;49.388;11.350;2023-08-07T02:27:10;1.23;;;0.90;;
11139;SDS011;5624;49.388;11.350;2023-08-07T02:29:36;0.80;;;0.80;;
11139;SDS011;5624;49.388;11.350;2023-08-07T02:32:01;1.67;;;0.90;;
11139;SDS011;5624;49.388;11.350;2023-08-07T02:34:28;1.07;;;1.03;;
11139;SDS011;5624;49.388;11.350;2023-08-07T02:36:54;1.33;;;0.80;;
11139;SDS011;5624;49.388;11.350;2023-08-07T02:39:19;0.87;;;0.77;;
11139;SDS011;5624;49.388;11.350;2023-08-07T02:41:45;1.50;;;1.03;;
11139;SDS011;5624;49.388;11.350;2023-08-07T02:44:11;2.20;;;1.03;;
11139;SDS011;5624;49.388;11.350;2023-08-07T02:46:36;1.67;;;0.90;;
11139;SDS011;5624;49.388;11.350;2023-08-07T02:49:02;1.33;;;1.10;;
11139;SDS011;5624;49.388;11.350;2023-08-07T02:51:27;1.63;;;0.90;;
11139;SDS011;5624;49.388;11.350;2023-08-07T02:53:53;0.77;;;0.77;;
11139;SDS011;5624;49.388;11.350;2023-08-07T02:56:18;1.90;;;1.10;;
11139;SDS011;5624;49.388;11.350;2023-08-07T02:58:44;0.93;;;0.83;;
11139;SDS011;5624;49.388;11.350;2023-08-07T03:01:09;0.97;;;0.97;;
11139;SDS011;5624;49.388;11.350;2023-08-07T03:03:36;2.70;;;1.00;;
11139;SDS011;5624;49.388;11.350;2023-08-07T03:06:02;1.40;;;1.10;;
11139;SDS011;5624;49.388;11.350;2023-08-07T03:08:28;1.73;;;1.33;;
11139;SDS011;5624;49.388;11.350;2023-08-07T03:10:55;2.00;;;1.20;;
11139;SDS011;5624;49.388;11.350;2023-08-07T03:13:22;1.67;;;1.20;;
11139;SDS011;5624;49.388;11.350;2023-08-07T03:16:01;2.03;;;1.30;;
11139;SDS011;5624;49.388;11.350;2023-08-07T03:18:28;3.10;;;1.10;;
11139;SDS011;5624;49.388;11.350;2023-08-07T03:20:55;2.33;;;1.60;;
11139;SDS011;5624;49.388;11.350;2023-08-07T03:23:21;3.43;;;1.40;;
11139;SDS011;5624;49.388;11.350;2023-08-07T03:25:47;2.37;;;1.20;;
11139;SDS011;5624;49.388;11.350;2023-08-07T03:28:13;2.93;;;1.40;;
11139;SDS011;5624;49.388;11.350;2023-08-07T03:30:38;4.53;;;1.70;;
11139;SDS011;5624;49.388;11.350;2023-08-07T03:33:04;1.57;;;1.30;;
11139;SDS011;5624;49.388;11.350;2023-08-07T03:35:30;1.33;;;1.17;;
11139;SDS011;5624;49.388;11.350;2023-08-07T03:37:55;3.83;;;1.53;;
11139;SDS011;5624;49.388;11.350;2023-08-07T03:40:21;1.93;;;1.40;;
11139;SDS011;5624;49.388;11.350;2023-08-07T03:42:46;1.80;;;1.53;;
11139;SDS011;5624;49.388;11.350;2023-08-07T03:45:12;2.20;;;1.53;;
11139;SDS011;5624;49.388;11.350;2023-08-07T03:47:38;2.33;;;1.33;;
11139;SDS011;5624;49.388;11.350;2023-08-07T03:50:04;2.87;;;1.60;;
11139;SDS011;5624;49.388;11.350;2023-08-07T03:52:30;3.00;;;1.80;;
11139;SDS011;5624;49.388;11.350;2023-08-07T03:54:56;3.13;;;1.73;;
11139;SDS011;5624;49.388;11.350;2023-08-07T03:57:21;1.60;;;1.50;;
11139;SDS011;5624;49.388;11.350;2023-08-07T03:59:47;2.00;;;1.60;;
11139;SDS011;5624;49.388;11.350;2023-08-07T04:02:12;3.47;;;1.83;;
11139;SDS011;5624;49.388;11.350;2023-08-07T04:04:38;3.10;;;1.67;;
11139;SDS011;5624;49.388;11.350;2023-08-07T04:07:03;4.00;;;2.13;;
11139;SDS011;5624;49.388;11.350;2023-08-07T04:09:29;3.20;;;2.00;;
11139;SDS011;5624;49.388;11.350;2023-08-07T04:11:54;3.90;;;2.17;;
11139;SDS011;5624;49.388;11.350;2023-08-07T04:14:20;3.37;;;2.30;;
11139;SDS011;5624;49.388;11.350;2023-08-07T04:16:45;3.97;;;2.07;;
11139;SDS011;5624;49.388;11.350;2023-08-07T04:19:11;3.23;;;2.17;;
11139;SDS011;5624;49.388;11.350;2023-08-07T04:21:36;4.23;;;2.50;;
11139;SDS011;5624;49.388;11.350;2023-08-07T04:24:02;5.57;;;2.20;;
11139;SDS011;5624;49.388;11.350;2023-08-07T04:26:35;3.80;;;2.07;;
11139;SDS011;5624;49.388;11.350;2023-08-07T04:29:01;2.63;;;2.23;;
11139;SDS011;5624;49.388;11.350;2023-08-07T04:31:27;4.73;;;2.20;;
11139;SDS011;5624;49.388;11.350;2023-08-07T04:33:55;4.27;;;2.30;;
11139;SDS011;5624;49.388;11.350;2023-08-07T04:36:21;3.93;;;2.30;;
11139;SDS011;5624;49.388;11.350;2023-08-07T04:38:47;4.63;;;2.40;;
11139;SDS011;5624;49.388;11.350;2023-08-07T04:41:12;4.70;;;2.20;;
11139;SDS011;5624;49.388;11.350;2023-08-07T04:43:38;4.53;;;2.30;;
11139;SDS011;5624;49.388;11.350;2023-08-07T04:46:04;6.53;;;2.40;;
11139;SDS011;5624;49.388;11.350;2023-08-07T04:48:29;3.93;;;2.33;;
11139;SDS011;5624;49.388;11.350;2023-08-07T04:50:56;8.13;;;3.00;;
11139;SDS011;5624;49.388;11.350;2023-08-07T04:53:22;4.07;;;2.37;;
11139;SDS011;5624;49.388;11.350;2023-08-07T04:55:48;3.77;;;2.50;;
11139;SDS011;5624;49.388;11.350;2023-08-07T04:58:13;4.03;;;2.57;;
11139;SDS011;5624;49.388;11.350;2023-08-07T05:00:39;4.23;;;2.67;;
11139;SDS011;5624;49.388;11.350;2023-08-07T05:03:04;3.73;;;2.47;;
11139;SDS011;5624;49.388;11.350;2023-08-07T05:05:30;4.20;;;2.30;;
11139;SDS011;5624;49.388;11.350;2023-08-07T05:07:57;4.20;;;2.57;;
11139;SDS011;5624;49.388;11.350;2023-08-07T05:10:23;6.13;;;2.87;;
11139;SDS011;5624;49.388;11.350;2023-08-07T05:12:48;3.23;;;2.60;;
11139;SDS011;5624;49.388;11.350;2023-08-07T05:15:20;5.27;;;2.73;;
11139;SDS011;5624;49.388;11.350;2023-08-07T05:17:49;4.57;;;2.53;;
11139;SDS011;5624;49.388;11.350;2023-08-07T05:20:15;4.33;;;2.80;;
11139;SDS011;5624;49.388;11.350;2023-08-07T05:22:42;4.17;;;2.47;;
11139;SDS011;5624;49.388;11.350;2023-08-07T05:25:08;3.47;;;2.40;;
11139;SDS011;5624;49.388;11.350;2023-08-07T05:27:34;5.70;;;2.53;;
11139;SDS011;5624;49.388;11.350;2023-08-07T05:30:00;4.03;;;2.63;;
11139;SDS011;5624;49.388;11.350;2023-08-07T05:32:25;3.20;;;2.37;;
11139;SDS011;5624;49.388;11.350;2023-08-07T05:34:51;5.27;;;2.87;;
11139;SDS011;5624;49.388;11.350;2023-08-07T05:37:17;3.93;;;2.83;;
11139;SDS011;5624;49.388;11.350;2023-08-07T05:39:42;5.10;;;2.30;;
11139;SDS011;5624;49.388;11.350;2023-08-07T05:42:08;4.70;;;2.53;;
11139;SDS011;5624;49.388;11.350;2023-08-07T05:44:35;4.73;;;2.47;;
11139;SDS011;5624;49.388;11.350;2023-08-07T05:47:00;4.93;;;2.30;;
11139;SDS011;5624;49.388;11.350;2023-08-07T05:49:26;4.50;;;2.57;;
11139;SDS011;5624;49.388;11.350;2023-08-07T05:51:52;4.13;;;3.00;;
11139;SDS011;5624;49.388;11.350;2023-08-07T05:54:18;5.70;;;2.73;;
11139;SDS011;5624;49.388;11.350;2023-08-07T05:56:43;5.30;;;2.50;;
11139;SDS011;5624;49.388;11.350;2023-08-07T05:59:09;4.67;;;2.70;;
11139;SDS011;5624;49.388;11.350;2023-08-07T06:01:34;5.67;;;3.13;;
11139;SDS011;5624;49.388;11.350;2023-08-07T06:04:01;4.03;;;2.70;;
11139;SDS011;5624;49.388;11.350;2023-08-07T06:06:27;4.90;;;2.80;;
11139;SDS011;5624;49.388;11.350;2023-08-07T06:08:56;3.93;;;3.13;;
11139;SDS011;5624;49.388;11.350;2023-08-07T06:11:21;4.70;;;2.87;;
11139;SDS011;5624;49.388;11.350;2023-08-07T06:13:48;3.83;;;2.70;;
11139;SDS011;5624;49.388;11.350;2023-08-07T06:16:13;5.07;;;2.97;;
11139;SDS011;5624;49.388;11.350;2023-08-07T06:18:39;3.50;;;2.70;;
11139;SDS011;5624;49.388;11.350;2023-08-07T06:21:04;5.67;;;2.87;;
11139;SDS011;5624;49.388;11.350;2023-08-07T06:23:32;4.97;;;2.03;;
11139;SDS011;5624;49.388;11.350;2023-08-07T06:25:58;4.10;;;2.33;;
11139;SDS011;5624;49.388;11.350;2023-08-07T06:28:23;3.33;;;2.50;;
11139;SDS011;5624;49.388;11.350;2023-08-07T06:30:49;2.77;;;2.13;;
11139;SDS011;5624;49.388;11.350;2023-08-07T06:33:15;5.17;;;2.97;;
11139;SDS011;5624;49.388;11.350;2023-08-07T06:35:40;3.90;;;2.30;;
11139;SDS011;5624;49.388;11.350;2023-08-07T06:38:07;3.50;;;2.43;;
11139;SDS011;5624;49.388;11.350;2023-08-07T06:40:34;4.17;;;2.07;;
11139;SDS011;5624;49.388;11.350;2023-08-07T06:43:00;3.93;;;2.77;;
11139;SDS011;5624;49.388;11.350;2023-08-07T06:45:26;4.97;;;2.53;;
11139;SDS011;5624;49.388;11.350;2023-08-07T06:47:51;2.93;;;2.37;;
11139;SDS011;5624;49.388;11.350;2023-08-07T06:50:17;4.57;;;2.33;;
11139;SDS011;5624;49.388;11.350;2023-08-07T06:52:42;4.73;;;2.47;;
11139;SDS011;5624;49.388;11.350;2023-08-07T06:55:08;4.80;;;2.30;;
11139;SDS011;5624;49.388;11.350;2023-08-07T06:57:34;3.77;;;2.23;;
11139;SDS011;5624;49.388;11.350;2023-08-07T06:59:59;4.17;;;2.80;;
11139;SDS011;5624;49.388;11.350;2023-08-07T07:02:25;4.63;;;2.60;;
11139;SDS011;5624;49.388;11.350;2023-08-07T07:04:51;4.10;;;2.70;;
11139;SDS011;5624;49.388;11.350;2023-08-07T07:07:16;6.43;;;2.73;;
11139;SDS011;5624;49.388;11.350;2023-08-07T07:09:42;5.20;;;2.47;;
11139;SDS011;5624;49.388;11.350;2023-08-07T07:12:07;8.13;;;4.07;;
11139;SDS011;5624;49.388;11.350;2023-08-07T07:14:33;3.63;;;2.23;;
11139;SDS011;5624;49.388;11.350;2023-08-07T07:16:59;3.63;;;2.30;;
11139;SDS011;5624;49.388;11.350;2023-08-07T07:19:25;4.60;;;2.70;;
11139;SDS011;5624;49.388;11.350;2023-08-07T07:21:51;3.80;;;2.20;;
11139;SDS011;5624;49.388;11.350;2023-08-07T07:24:16;3.67;;;2.20;;
11139;SDS011;5624;49.388;11.350;2023-08-07T07:26:42;3.40;;;2.17;;
11139;SDS011;5624;49.388;11.350;2023-08-07T07:29:07;4.30;;;2.30;;
11139;SDS011;5624;49.388;11.350;2023-08-07T07:31:33;4.07;;;2.40;;
11139;SDS011;5624;49.388;11.350;2023-08-07T07:33:58;2.77;;;2.20;;
11139;SDS011;5624;49.388;11.350;2023-08-07T07:36:24;4.03;;;2.53;;
11139;SDS011;5624;49.388;11.350;2023-08-07T07:38:50;4.30;;;2.70;;
11139;SDS011;5624;49.388;11.350;2023-08-07T07:41:15;4.90;;;2.60;;
11139;SDS011;5624;49.388;11.350;2023-08-07T07:43:41;3.60;;;2.67;;
11139;SDS011;5624;49.388;11.350;2023-08-07T07:46:07;5.67;;;2.83;;
11139;SDS011;5624;49.388;11.350;2023-08-07T07:48:33;4.07;;;2.60;;
11139;SDS011;5624;49.388;11.350;2023-08-07T07:50:59;3.47;;;2.57;;
11139;SDS011;5624;49.388;11.350;2023-08-07T07:53:25;4.07;;;2.83;;
11139;SDS011;5624;49.388;11.350;2023-08-07T07:55:51;3.90;;;3.07;;
11139;SDS011;5624;49.388;11.350;2023-08-07T07:58:16;4.60;;;3.07;;
11139;SDS011;5624;49.388;11.350;2023-08-07T08:00:42;4.67;;;2.70;;
11139;SDS011;5624;49.388;11.350;2023-08-07T08:03:07;4.57;;;2.90;;
11139;SDS011;5624;49.388;11.350;2023-08-07T08:05:33;7.50;;;2.87;;
11139;SDS011;5624;49.388;11.350;2023-08-07T08:07:59;5.00;;;2.80;;
11139;SDS011;5624;49.388;11.350;2023-08-07T08:10:26;4.83;;;2.67;;
11139;SDS011;5624;49.388;11.350;2023-08-07T08:12:54;5.77;;;2.83;;
11139;SDS011;5624;49.388;11.350;2023-08-07T08:15:20;3.93;;;2.57;;
11139;SDS011;5624;49.388;11.350;2023-08-07T08:17:46;5.07;;;2.80;;
11139;SDS011;5624;49.388;11.350;2023-08-07T08:20:12;7.77;;;3.13;;
11139;SDS011;5624;49.388;11.350;2023-08-07T08:22:43;5.70;;;2.80;;
11139;SDS011;5624;49.388;11.350;2023-08-07T08:25:09;7.23;;;3.23;;
11139;SDS011;5624;49.388;11.350;2023-08-07T08:27:36;7.63;;;5.23;;
11139;SDS011;5624;49.388;11.350;2023-08-07T08:30:05;4.43;;;3.07;;
11139;SDS011;5624;49.388;11.350;2023-08-07T08:32:32;5.83;;;2.87;;
11139;SDS011;5624;49.388;11.350;2023-08-07T08:34:57;5.03;;;3.07;;
11139;SDS011;5624;49.388;11.350;2023-08-07T08:37:23;5.57;;;2.90;;
11139;SDS011;5624;49.388;11.350;2023-08-07T08:39:49;4.33;;;2.90;;
11139;SDS011;5624;49.388;11.350;2023-08-07T08:42:14;6.57;;;3.23;;
11139;SDS011;5624;49.388;11.350;2023-08-07T08:44:44;5.27;;;2.90;;
11139;SDS011;5624;49.388;11.350;2023-08-07T08:47:14;5.97;;;2.77;;
11139;SDS011;5624;49.388;11.350;2023-08-07T08:49:47;5.83;;;3.13;;
11139;SDS011;5624;49.388;11.350;2023-08-07T08:52:19;6.10;;;3.13;;
11139;SDS011;5624;49.388;11.350;2023-08-07T08:54:46;5.13;;;2.87;;
11139;SDS011;5624;49.388;11.350;2023-08-07T08:57:12;5.80;;;3.30;;
11139;SDS011;5624;49.388;11.350;2023-08-07T08:59:39;4.50;;;2.93;;
11139;SDS011;5624;49.388;11.350;2023-08-07T09:02:06;5.73;;;3.10;;
11139;SDS011;5624;49.388;11.350;2023-08-07T09:04:33;5.37;;;2.90;;
11139;SDS011;5624;49.388;11.350;2023-08-07T09:06:58;5.70;;;3.03;;
11139;SDS011;5624;49.388;11.350;2023-08-07T09:09:25;6.83;;;3.27;;
11139;SDS011;5624;49.388;11.350;2023-08-07T09:11:53;4.67;;;3.13;;
11139;SDS011;5624;49.388;11.350;2023-08-07T09:14:22;4.37;;;3.00;;
11139;SDS011;5624;49.388;11.350;2023-08-07T09:16:51;6.70;;;3.40;;
11139;SDS011;5624;49.388;11.350;2023-08-07T09:19:18;5.93;;;3.10;;
11139;SDS011;5624;49.388;11.350;2023-08-07T09:21:44;5.77;;;3.00;;
11139;SDS011;5624;49.388;11.350;2023-08-07T09:24:09;5.33;;;3.47;;
11139;SDS011;5624;49.388;11.350;2023-08-07T09:26:36;5.37;;;3.37;;
11139;SDS011;5624;49.388;11.350;2023-08-07T09:29:03;4.07;;;3.37;;
11139;SDS011;5624;49.388;11.350;2023-08-07T09:31:29;4.50;;;2.70;;
11139;SDS011;5624;49.388;11.350;2023-08-07T09:34:02;4.40;;;3.00;;
11139;SDS011;5624;49.388;11.350;2023-08-07T09:36:31;4.53;;;2.60;;
11139;SDS011;5624;49.388;11.350;2023-08-07T09:39:00;6.63;;;3.40;;
11139;SDS011;5624;49.388;11.350;2023-08-07T09:41:26;4.33;;;2.50;;
11139;SDS011;5624;49.388;11.350;2023-08-07T09:43:54;5.43;;;2.80;;
11139;SDS011;5624;49.388;11.350;2023-08-07T09:46:19;3.80;;;2.30;;
11139;SDS011;5624;49.388;11.350;2023-08-07T09:48:45;5.23;;;2.90;;
11139;SDS011;5624;49.388;11.350;2023-08-07T09:51:11;5.63;;;2.83;;
11139;SDS011;5624;49.388;11.350;2023-08-07T09:53:36;5.50;;;2.90;;
11139;SDS011;5624;49.388;11.350;2023-08-07T09:56:02;4.97;;;2.63;;
11139;SDS011;5624;49.388;11.350;2023-08-07T09:58:28;5.60;;;3.23;;
11139;SDS011;5624;49.388;11.350;2023-08-07T10:00:55;5.90;;;2.60;;
11139;SDS011;5624;49.388;11.350;2023-08-07T10:03:24;4.53;;;2.77;;
11139;SDS011;5624;49.388;11.350;2023-08-07T10:05:51;4.40;;;2.80;;
11139;SDS011;5624;49.388;11.350;2023-08-07T10:08:16;4.67;;;2.47;;
11139;SDS011;5624;49.388;11.350;2023-08-07T10:10:43;6.50;;;2.60;;
11139;SDS011;5624;49.388;11.350;2023-08-07T10:13:12;5.87;;;2.50;;
11139;SDS011;5624;49.388;11.350;2023-08-07T10:15:38;4.17;;;2.60;;
11139;SDS011;5624;49.388;11.350;2023-08-07T10:18:05;5.87;;;2.90;;
11139;SDS011;5624;49.388;11.350;2023-08-07T10:20:31;4.40;;;2.40;;
11139;SDS011;5624;49.388;11.350;2023-08-07T10:23:04;4.27;;;2.70;;
11139;SDS011;5624;49.388;11.350;2023-08-07T10:25:32;3.10;;;2.40;;
11139;SDS011;5624;49.388;11.350;2023-08-07T10:28:00;4.13;;;2.30;;
11139;SDS011;5624;49.388;11.350;2023-08-07T10:30:28;5.77;;;2.60;;
11139;SDS011;5624;49.388;11.350;2023-08-07T10:32:55;2.97;;;2.33;;
11139;SDS011;5624;49.388;11.350;2023-08-07T10:35:29;5.73;;;2.83;;
11139;SDS011;5624;49.388;11.350;2023-08-07T10:37:57;6.67;;;2.50;;
11139;SDS011;5624;49.388;11.350;2023-08-07T10:40:31;2.73;;;2.27;;
11139;SDS011;5624;49.388;11.350;2023-08-07T10:42:58;4.77;;;2.67;;
11139;SDS011;5624;49.388;11.350;2023-08-07T10:45:25;2.93;;;2.20;;
11139;SDS011;5624;49.388;11.350;2023-08-07T10:50:29;4.27;;;2.43;;
11139;SDS011;5624;49.388;11.350;2023-08-07T10:53:00;3.23;;;2.37;;
11139;SDS011;5624;49.388;11.350;2023-08-07T10:55:42;5.67;;;2.50;;
11139;SDS011;5624;49.388;11.350;2023-08-07T10:58:30;4.90;;;2.70;;
11139;SDS011;5624;49.388;11.350;2023-08-07T11:03:50;3.50;;;2.43;;
11139;SDS011;5624;49.388;11.350;2023-08-07T11:06:17;2.90;;;2.40;;
11139;SDS011;5624;49.388;11.350;2023-08-07T11:08:46;3.77;;;2.50;;
11139;SDS011;5624;49.388;11.350;2023-08-07T11:11:13;4.03;;;2.37;;
11139;SDS011;5624;49.388;11.350;2023-08-07T11:13:39;5.57;;;2.73;;
11139;SDS011;5624;49.388;11.350;2023-08-07T11:16:05;5.13;;;2.30;;
11139;SDS011;5624;49.388;11.350;2023-08-07T11:18:31;3.13;;;2.00;;
11139;SDS011;5624;49.388;11.350;2023-08-07T11:20:57;4.60;;;2.60;;
11139;SDS011;5624;49.388;11.350;2023-08-07T11:23:27;3.90;;;2.40;;
11139;SDS011;5624;49.388;11.350;2023-08-07T11:25:53;3.33;;;2.57;;
11139;SDS011;5624;49.388;11.350;2023-08-07T11:28:20;3.77;;;2.23;;
11139;SDS011;5624;49.388;11.350;2023-08-07T11:30:48;2.87;;;2.37;;
11139;SDS011;5624;49.388;11.350;2023-08-07T11:33:16;5.70;;;2.83;;
11139;SDS011;5624;49.388;11.350;2023-08-07T11:35:49;5.37;;;2.90;;
11139;SDS011;5624;49.388;11.350;2023-08-07T11:38:28;3.87;;;2.97;;
11139;SDS011;5624;49.388;11.350;2023-08-07T11:40:56;4.83;;;2.70;;
11139;SDS011;5624;49.388;11.350;2023-08-07T11:43:23;3.23;;;2.50;;
11139;SDS011;5624;49.388;11.350;2023-08-07T11:45:49;2.53;;;2.17;;
11139;SDS011;5624;49.388;11.350;2023-08-07T11:48:15;4.90;;;2.50;;
11139;SDS011;5624;49.388;11.350;2023-08-07T11:50:41;3.73;;;2.50;;
11139;SDS011;5624;49.388;11.350;2023-08-07T11:53:08;4.23;;;2.77;;
11139;SDS011;5624;49.388;11.350;2023-08-07T11:55:34;4.93;;;2.60;;
11139;SDS011;5624;49.388;11.350;2023-08-07T11:58:02;3.87;;;2.37;;
11139;SDS011;5624;49.388;11.350;2023-08-07T12:00:28;3.50;;;2.57;;
11139;SDS011;5624;49.388;11.350;2023-08-07T12:02:54;4.20;;;2.43;;
11139;SDS011;5624;49.388;11.350;2023-08-07T12:05:19;4.63;;;2.93;;
11139;SDS011;5624;49.388;11.350;2023-08-07T12:07:46;5.23;;;3.03;;
11139;SDS011;5624;49.388;11.350;2023-08-07T12:10:13;6.70;;;2.57;;
11139;SDS011;5624;49.388;11.350;2023-08-07T12:12:38;5.00;;;3.10;;
11139;SDS011;5624;49.388;11.350;2023-08-07T12:15:10;6.80;;;3.37;;
11139;SDS011;5624;49.388;11.350;2023-08-07T12:17:36;4.20;;;2.47;;
11139;SDS011;5624;49.388;11.350;2023-08-07T12:20:05;5.23;;;2.50;;
11139;SDS011;5624;49.388;11.350;2023-08-07T12:22:36;3.37;;;2.10;;
11139;SDS011;5624;49.388;11.350;2023-08-07T12:25:02;6.27;;;2.67;;
11139;SDS011;5624;49.388;11.350;2023-08-07T12:27:28;6.57;;;2.70;;
11139;SDS011;5624;49.388;11.350;2023-08-07T12:29:53;4.00;;;2.20;;
11139;SDS011;5624;49.388;11.350;2023-08-07T12:32:19;4.03;;;2.30;;
11139;SDS011;5624;49.388;11.350;2023-08-07T12:34:44;3.80;;;2.33;;
11139;SDS011;5624;49.388;11.350;2023-08-07T12:37:10;7.67;;;4.40;;
11139;SDS011;5624;49.388;11.350;2023-08-07T12:39:35;12.37;;;7.07;;
11139;SDS011;5624;49.388;11.350;2023-08-07T12:42:01;4.60;;;2.07;;
11139;SDS011;5624;49.388;11.350;2023-08-07T12:44:28;4.47;;;1.63;;
11139;SDS011;5624;49.388;11.350;2023-08-07T12:46:53;3.50;;;2.00;;
11139;SDS011;5624;49.388;11.350;2023-08-07T12:49:19;4.23;;;1.90;;
11139;SDS011;5624;49.388;11.350;2023-08-07T12:51:44;3.17;;;2.00;;
11139;SDS011;5624;49.388;11.350;2023-08-07T12:54:10;3.70;;;2.20;;
11139;SDS011;5624;49.388;11.350;2023-08-07T12:56:36;2.57;;;1.63;;
11139;SDS011;5624;49.388;11.350;2023-08-07T12:59:01;2.90;;;2.10;;
11139;SDS011;5624;49.388;11.350;2023-08-07T13:01:27;4.47;;;1.80;;
11139;SDS011;5624;49.388;11.350;2023-08-07T13:03:53;2.83;;;1.70;;
11139;SDS011;5624;49.388;11.350;2023-08-07T13:06:19;4.97;;;1.83;;
11139;SDS011;5624;49.388;11.350;2023-08-07T13:08:46;5.27;;;2.27;;
11139;SDS011;5624;49.388;11.350;2023-08-07T13:11:11;1.80;;;1.47;;
11139;SDS011;5624;49.388;11.350;2023-08-07T13:13:37;4.57;;;1.93;;
11139;SDS011;5624;49.388;11.350;2023-08-07T13:16:03;1.63;;;1.50;;
11139;SDS011;5624;49.388;11.350;2023-08-07T13:18:29;2.73;;;1.50;;
11139;SDS011;5624;49.388;11.350;2023-08-07T13:20:54;2.90;;;1.50;;
11139;SDS011;5624;49.388;11.350;2023-08-07T13:23:21;2.33;;;1.70;;
11139;SDS011;5624;49.388;11.350;2023-08-07T13:25:47;4.73;;;2.23;;
11139;SDS011;5624;49.388;11.350;2023-08-07T13:28:12;3.90;;;1.70;;
11139;SDS011;5624;49.388;11.350;2023-08-07T13:30:38;2.50;;;1.50;;
11139;SDS011;5624;49.388;11.350;2023-08-07T13:33:04;2.93;;;1.73;;
11139;SDS011;5624;49.388;11.350;2023-08-07T13:35:30;3.23;;;2.00;;
11139;SDS011;5624;49.388;11.350;2023-08-07T13:37:56;6.20;;;2.30;;
11139;SDS011;5624;49.388;11.350;2023-08-07T13:40:21;2.63;;;1.60;;
11139;SDS011;5624;49.388;11.350;2023-08-07T13:42:47;3.13;;;1.93;;
11139;SDS011;5624;49.388;11.350;2023-08-07T13:45:12;4.73;;;2.07;;
11139;SDS011;5624;49.388;11.350;2023-08-07T13:47:38;3.37;;;2.37;;
11139;SDS011;5624;49.388;11.350;2023-08-07T13:50:04;2.40;;;2.00;;
11139;SDS011;5624;49.388;11.350;2023-08-07T13:52:32;3.20;;;2.13;;
11139;SDS011;5624;49.388;11.350;2023-08-07T13:54:58;2.43;;;1.80;;
11139;SDS011;5624;49.388;11.350;2023-08-07T13:57:24;2.93;;;1.90;;
11139;SDS011;5624;49.388;11.350;2023-08-07T13:59:49;2.20;;;2.00;;
11139;SDS011;5624;49.388;11.350;2023-08-07T14:02:15;3.10;;;2.00;;
11139;SDS011;5624;49.388;11.350;2023-08-07T14:04:40;3.70;;;2.20;;
11139;SDS011;5624;49.388;11.350;2023-08-07T14:07:10;2.83;;;2.30;;
11139;SDS011;5624;49.388;11.350;2023-08-07T14:09:36;2.60;;;2.10;;
11139;SDS011;5624;49.388;11.350;2023-08-07T14:12:02;3.87;;;1.87;;
11139;SDS011;5624;49.388;11.350;2023-08-07T14:14:28;3.43;;;2.23;;
11139;SDS011;5624;49.388;11.350;2023-08-07T14:16:53;4.33;;;2.27;;
11139;SDS011;5624;49.388;11.350;2023-08-07T14:19:22;3.33;;;2.30;;
11139;SDS011;5624;49.388;11.350;2023-08-07T14:21:48;4.80;;;2.53;;
11139;SDS011;5624;49.388;11.350;2023-08-07T14:24:14;4.27;;;2.83;;
11139;SDS011;5624;49.388;11.350;2023-08-07T14:26:41;4.63;;;2.40;;
11139;SDS011;5624;49.388;11.350;2023-08-07T14:29:06;4.53;;;2.60;;
11139;SDS011;5624;49.388;11.350;2023-08-07T14:31:32;4.77;;;2.90;;
11139;SDS011;5624;49.388;11.350;2023-08-07T14:33:57;3.90;;;2.37;;
11139;SDS011;5624;49.388;11.350;2023-08-07T14:36:23;3.47;;;2.40;;
11139;SDS011;5624;49.388;11.350;2023-08-07T14:38:48;3.57;;;2.67;;
11139;SDS011;5624;49.388;11.350;2023-08-07T14:41:14;3.97;;;2.70;;
11139;SDS011;5624;49.388;11.350;2023-08-07T14:43:39;6.37;;;2.90;;
11139;SDS011;5624;49.388;11.350;2023-08-07T14:46:05;6.07;;;2.50;;
11139;SDS011;5624;49.388;11.350;2023-08-07T14:48:30;4.97;;;2.73;;
11139;SDS011;5624;49.388;11.350;2023-08-07T14:50:56;4.13;;;2.80;;